createdAt,value
2018-03-07T00:01:26.190Z,4.80
2018-03-07T00:03:54.540Z,4.80
2018-03-07T00:06:22.916Z,4.80
2018-03-07T00:08:51.304Z,4.80
2018-03-07T00:11:19.663Z,4.80
2018-03-07T00:13:48.028Z,4.90
2018-03-07T00:16:17.142Z,4.80
2018-03-07T00:18:45.527Z,4.80
2018-03-07T00:21:13.866Z,4.80
2018-03-07T00:23:42.251Z,4.80
2018-03-07T00:26:10.813Z,4.80
2018-03-07T00:28:39.156Z,4.80
2018-03-07T00:31:07.546Z,4.80
2018-03-07T00:33:36.694Z,4.80
2018-03-07T00:36:05.852Z,4.70
2018-03-07T00:38:34.210Z,4.70
2018-03-07T00:41:02.597Z,4.80
2018-03-07T00:43:30.985Z,4.80
2018-03-07T00:45:59.384Z,4.80
2018-03-07T00:48:27.929Z,4.70
2018-03-07T00:50:56.306Z,4.60
2018-03-07T00:53:25.189Z,4.50
2018-03-07T00:55:53.570Z,4.50
2018-03-07T00:58:21.952Z,4.50
2018-03-07T01:00:49.971Z,4.40
2018-03-07T01:03:19.130Z,4.30
2018-03-07T01:05:47.548Z,4.30
2018-03-07T01:08:16.661Z,4.20
2018-03-07T01:10:45.045Z,4.20
2018-03-07T01:13:13.388Z,4.10
2018-03-07T01:15:41.747Z,4.10
2018-03-07T01:18:10.120Z,4.10
2018-03-07T01:20:38.558Z,4.00
2018-03-07T01:23:06.929Z,4.00
2018-03-07T01:25:35.284Z,3.90
2018-03-07T01:28:03.664Z,3.80
2018-03-07T01:30:32.033Z,3.80
2018-03-07T01:33:00.390Z,3.90
2018-03-07T01:35:28.733Z,3.90
2018-03-07T01:37:57.164Z,3.90
2018-03-07T01:40:25.584Z,3.90
2018-03-07T01:42:53.937Z,3.90
2018-03-07T01:45:23.058Z,3.90
2018-03-07T01:47:51.404Z,3.90
2018-03-07T01:50:20.534Z,3.80
2018-03-07T01:52:49.112Z,3.80
2018-03-07T01:55:17.514Z,3.80
2018-03-07T01:57:45.899Z,3.80
2018-03-07T02:00:14.237Z,3.80
2018-03-07T02:02:42.619Z,3.80
2018-03-07T02:05:10.964Z,3.80
2018-03-07T02:07:39.332Z,3.70
2018-03-07T02:10:07.722Z,3.70
2018-03-07T02:12:36.904Z,3.60
2018-03-07T02:15:05.245Z,3.50
2018-03-07T02:17:33.628Z,3.50
2018-03-07T02:20:01.995Z,3.50
2018-03-07T02:22:31.304Z,3.50
2018-03-07T02:24:59.701Z,3.50
2018-03-07T02:27:28.054Z,3.40
2018-03-07T02:29:56.406Z,3.40
2018-03-07T02:32:25.588Z,3.40
2018-03-07T02:34:54.733Z,3.30
2018-03-07T02:37:23.276Z,3.20
2018-03-07T02:39:52.388Z,3.10
2018-03-07T02:42:20.748Z,3.00
2018-03-07T02:44:49.674Z,2.90
2018-03-07T02:47:19.031Z,2.90
2018-03-07T02:49:48.157Z,2.90
2018-03-07T02:52:16.531Z,2.90
2018-03-07T02:54:44.881Z,2.90
2018-03-07T02:57:13.233Z,2.80
2018-03-07T02:59:41.602Z,2.80
2018-03-07T03:02:09.981Z,2.70
2018-03-07T03:04:38.341Z,2.70
2018-03-07T03:07:06.707Z,2.70
2018-03-07T03:09:35.200Z,2.60
2018-03-07T03:12:03.531Z,2.60
2018-03-07T03:14:32.660Z,2.60
2018-03-07T03:17:00.999Z,2.50
2018-03-07T03:19:30.116Z,2.40
2018-03-07T03:21:58.465Z,2.40
2018-03-07T03:24:26.867Z,2.40
2018-03-07T03:26:55.993Z,2.30
2018-03-07T03:29:24.340Z,2.30
2018-03-07T03:31:53.468Z,2.30
2018-03-07T03:34:21.812Z,2.30
2018-03-07T03:36:50.926Z,2.30
2018-03-07T03:39:19.272Z,2.20
2018-03-07T03:41:47.639Z,2.30
2018-03-07T03:44:16.033Z,2.30
2018-03-07T03:46:45.148Z,2.20
2018-03-07T03:49:14.131Z,2.20
2018-03-07T03:51:43.248Z,2.40
2018-03-07T03:54:11.603Z,2.40
2018-03-07T03:56:40.696Z,2.70
2018-03-07T03:59:09.842Z,2.70
2018-03-07T04:01:38.225Z,2.70
2018-03-07T04:04:06.572Z,2.80
2018-03-07T04:06:34.924Z,2.90
2018-03-07T04:09:03.220Z,3.10
2018-03-07T04:11:31.599Z,3.10
2018-03-07T04:13:59.977Z,3.20
2018-03-07T04:16:28.349Z,3.30
2018-03-07T04:18:56.724Z,3.40
2018-03-07T04:21:24.778Z,3.50
2018-03-07T04:23:53.900Z,3.60
2018-03-07T04:26:22.269Z,3.60
2018-03-07T04:28:50.670Z,3.50
2018-03-07T04:31:19.016Z,3.50
2018-03-07T04:33:48.148Z,3.60
2018-03-07T04:36:16.714Z,3.50
2018-03-07T04:38:45.053Z,3.60
2018-03-07T04:41:14.204Z,3.70
2018-03-07T04:43:42.549Z,3.70
2018-03-07T04:46:10.936Z,3.50
2018-03-07T04:48:39.308Z,3.40
2018-03-07T04:51:08.457Z,3.50
2018-03-07T04:53:36.849Z,3.50
2018-03-07T04:56:04.876Z,3.50
2018-03-07T04:58:33.253Z,3.40
2018-03-07T05:01:01.620Z,3.30
2018-03-07T05:03:29.967Z,3.30
2018-03-07T05:05:59.076Z,3.40
2018-03-07T05:08:28.269Z,3.30
2018-03-07T05:10:57.408Z,3.20
2018-03-07T05:13:25.770Z,3.20
2018-03-07T05:15:54.152Z,3.30
2018-03-07T05:18:22.516Z,3.40
2018-03-07T05:20:50.904Z,3.50
2018-03-07T05:23:19.243Z,3.50
2018-03-07T05:25:48.416Z,3.30
2018-03-07T05:28:16.785Z,3.30
2018-03-07T05:30:44.832Z,3.20
2018-03-07T05:33:13.230Z,3.20
2018-03-07T05:35:42.338Z,3.30
2018-03-07T05:38:10.751Z,3.30
2018-03-07T05:40:39.885Z,3.40
2018-03-07T05:43:08.297Z,3.30
2018-03-07T05:45:36.664Z,3.50
2018-03-07T05:48:05.016Z,3.60
2018-03-07T05:50:33.485Z,3.60
2018-03-07T05:53:01.833Z,3.60
2018-03-07T05:55:30.984Z,3.70
2018-03-07T05:57:59.368Z,3.70
2018-03-07T06:00:27.765Z,3.70
2018-03-07T06:02:56.150Z,3.80
2018-03-07T06:05:24.593Z,3.90
2018-03-07T06:07:52.958Z,4.00
2018-03-07T06:10:21.322Z,4.10
2018-03-07T06:12:49.692Z,4.10
2018-03-07T06:15:18.040Z,4.20
2018-03-07T06:17:47.184Z,4.30
2018-03-07T06:20:15.559Z,4.30
2018-03-07T06:22:43.956Z,4.30
2018-03-07T06:25:12.299Z,4.30
2018-03-07T06:27:41.399Z,4.40
2018-03-07T06:30:09.800Z,4.40
2018-03-07T06:32:38.281Z,4.40
2018-03-07T06:35:06.488Z,4.50
2018-03-07T06:37:34.860Z,4.60
2018-03-07T06:40:03.221Z,4.70
2018-03-07T06:42:31.583Z,4.80
2018-03-07T06:44:59.925Z,4.90
2018-03-07T06:47:28.912Z,5.20
2018-03-07T06:49:58.046Z,5.30
2018-03-07T06:52:26.645Z,5.30
2018-03-07T06:54:54.996Z,5.30
2018-03-07T06:57:23.507Z,5.40
2018-03-07T06:59:51.892Z,5.40
2018-03-07T07:02:20.279Z,5.30
2018-03-07T07:04:48.657Z,5.40
2018-03-07T07:07:17.002Z,5.40
2018-03-07T07:09:45.025Z,5.50
2018-03-07T07:12:13.409Z,5.50
2018-03-07T07:14:42.573Z,5.60
2018-03-07T07:17:10.944Z,5.50
2018-03-07T07:19:39.339Z,5.60
2018-03-07T07:22:07.723Z,5.60
2018-03-07T07:24:36.312Z,5.60
2018-03-07T07:27:04.807Z,5.70
2018-03-07T07:29:33.956Z,5.70
2018-03-07T07:32:02.349Z,5.70
2018-03-07T07:34:30.920Z,5.70
2018-03-07T07:36:59.323Z,5.60
2018-03-07T07:41:57.059Z,5.60
2018-03-07T07:44:25.447Z,5.70
2018-03-07T07:46:54.009Z,5.60
2018-03-07T07:49:24.108Z,5.60
2018-03-07T07:51:53.112Z,5.50
2018-03-07T07:54:21.514Z,5.50
2018-03-07T07:56:50.930Z,4.90
2018-03-07T07:59:20.237Z,5.40
2018-03-07T08:01:48.579Z,5.40
2018-03-07T08:04:16.947Z,5.30
2018-03-07T08:06:46.084Z,5.30
2018-03-07T08:09:17.743Z,5.30
2018-03-07T08:11:46.120Z,5.30
2018-03-07T08:14:15.643Z,5.50
2018-03-07T08:26:42.699Z,5.50
2018-03-07T08:31:40.489Z,5.40
2018-03-07T08:34:08.856Z,5.50
2018-03-07T08:36:37.220Z,5.50
2018-03-07T08:39:06.027Z,5.50
2018-03-07T08:41:34.377Z,5.50
2018-03-07T08:49:01.510Z,5.60
2018-03-07T08:51:29.980Z,5.60
2018-03-07T08:53:58.333Z,5.60
2018-03-07T08:56:26.713Z,5.60
2018-03-07T08:58:55.097Z,5.60
2018-03-07T09:01:23.477Z,5.60
2018-03-07T09:03:51.859Z,5.70
2018-03-07T09:06:20.232Z,5.70
2018-03-07T09:08:49.388Z,5.80
2018-03-07T09:11:17.764Z,5.80
2018-03-07T09:13:46.212Z,5.90
2018-03-07T09:16:14.608Z,6.00
2018-03-07T09:18:42.981Z,6.10
2018-03-07T09:21:11.373Z,6.10
2018-03-07T09:23:39.745Z,6.20
2018-03-07T09:26:08.147Z,6.30
2018-03-07T09:28:37.273Z,6.50
2018-03-07T09:31:05.662Z,6.50
2018-03-07T09:33:34.033Z,6.50
2018-03-07T09:36:02.384Z,6.60
2018-03-07T09:38:31.500Z,7.10
2018-03-07T09:40:59.873Z,7.10
2018-03-07T09:43:28.275Z,7.30
2018-03-07T09:45:56.613Z,7.60
2018-03-07T09:48:25.772Z,7.90
2018-03-07T09:50:54.137Z,7.90
2018-03-07T09:53:22.793Z,7.80
2018-03-07T09:55:51.147Z,8.00
2018-03-07T09:58:20.270Z,8.00
2018-03-07T10:00:48.636Z,8.00
2018-03-07T10:03:17.750Z,8.00
2018-03-07T10:05:46.239Z,8.00
2018-03-07T10:08:14.612Z,7.90
2018-03-07T10:10:42.969Z,7.70
2018-03-07T10:13:11.161Z,7.70
2018-03-07T10:18:09.658Z,9.20
2018-03-07T10:20:37.994Z,9.20
2018-03-07T10:23:07.162Z,9.40
2018-03-07T10:25:35.492Z,9.40
2018-03-07T10:28:03.848Z,9.40
2018-03-07T10:30:32.957Z,9.00
2018-03-07T10:33:02.451Z,8.80
2018-03-07T10:35:32.228Z,8.60
2018-03-07T10:38:00.570Z,8.70
2018-03-07T10:40:28.916Z,8.50
2018-03-07T10:42:58.765Z,8.00
2018-03-07T10:45:27.113Z,8.00
2018-03-07T10:47:56.648Z,8.00
2018-03-07T10:50:25.011Z,8.00
2018-03-07T10:52:53.342Z,8.20
2018-03-07T10:55:21.685Z,8.10
2018-03-07T10:57:50.040Z,8.10
2018-03-07T11:00:23.793Z,8.10
2018-03-07T11:02:52.229Z,8.10
2018-03-07T11:05:20.595Z,8.00
2018-03-07T11:07:49.728Z,7.90
2018-03-07T11:10:18.081Z,7.90
2018-03-07T11:12:46.416Z,8.00
2018-03-07T11:15:14.780Z,8.10
2018-03-07T11:17:43.228Z,8.20
2018-03-07T11:20:11.577Z,8.50
2018-03-07T11:22:40.689Z,8.30
2018-03-07T11:25:09.059Z,8.30
2018-03-07T11:27:37.400Z,8.20
2018-03-07T11:30:05.754Z,8.10
2018-03-07T11:32:34.128Z,7.90
2018-03-07T11:35:02.464Z,7.90
2018-03-07T11:37:30.820Z,7.80
2018-03-07T11:39:59.185Z,7.80
2018-03-07T11:42:27.555Z,7.80
2018-03-07T11:44:55.909Z,7.90
2018-03-07T11:47:24.377Z,7.90
2018-03-07T11:49:52.713Z,7.90
2018-03-07T11:52:21.055Z,8.00
2018-03-07T11:54:49.401Z,8.00
2018-03-07T11:57:17.742Z,8.10
2018-03-07T11:59:46.097Z,8.10
2018-03-07T12:02:14.440Z,8.20
2018-03-07T12:04:42.805Z,8.30
2018-03-07T12:07:11.200Z,8.30
2018-03-07T12:09:39.685Z,8.20
2018-03-07T12:12:08.035Z,8.20
2018-03-07T12:14:37.140Z,8.20
2018-03-07T12:17:05.494Z,8.10
2018-03-07T12:19:34.647Z,8.10
2018-03-07T12:22:03.919Z,7.90
2018-03-07T12:24:32.249Z,8.10
2018-03-07T12:27:00.600Z,8.10
2018-03-07T12:29:28.955Z,8.00
2018-03-07T12:31:59.044Z,8.10
2018-03-07T12:34:28.213Z,8.00
2018-03-07T12:36:56.576Z,8.00
2018-03-07T12:39:24.928Z,8.00
2018-03-07T12:41:53.272Z,8.00
2018-03-07T12:44:22.410Z,7.90
2018-03-07T12:46:50.745Z,7.90
2018-03-07T12:49:19.911Z,7.90
2018-03-07T12:51:49.173Z,7.90
2018-03-07T12:54:17.509Z,7.90
2018-03-07T12:56:45.864Z,7.90
2018-03-07T12:59:14.214Z,7.90
2018-03-07T13:01:42.583Z,7.90
2018-03-07T13:04:10.930Z,8.00
2018-03-07T13:06:40.022Z,8.00
2018-03-07T13:09:09.141Z,8.00
2018-03-07T13:11:37.482Z,8.10
2018-03-07T13:14:05.837Z,8.10
2018-03-07T13:16:34.178Z,8.10
2018-03-07T13:19:03.301Z,8.30
2018-03-07T13:21:31.652Z,8.30
2018-03-07T13:24:00.750Z,8.60
2018-03-07T13:26:29.108Z,8.60
2018-03-07T13:28:58.345Z,8.60
2018-03-07T13:31:26.686Z,8.60
2018-03-07T13:33:55.799Z,8.50
2018-03-07T13:36:24.151Z,8.50
2018-03-07T13:38:52.552Z,8.40
2018-03-07T13:41:21.075Z,8.40
2018-03-07T13:43:49.400Z,8.20
2018-03-07T13:46:17.746Z,8.20
2018-03-07T13:48:46.107Z,8.20
2018-03-07T13:51:14.469Z,8.10
2018-03-07T13:53:42.817Z,8.10
2018-03-07T13:56:11.156Z,7.90
2018-03-07T13:58:39.548Z,7.90
2018-03-07T14:01:07.900Z,7.80
2018-03-07T14:03:36.235Z,7.70
2018-03-07T14:06:04.268Z,7.70
2018-03-07T14:08:32.808Z,7.60
2018-03-07T14:11:01.157Z,7.40
2018-03-07T14:13:31.580Z,7.30
2018-03-07T14:16:00.253Z,7.30
2018-03-07T14:18:28.421Z,7.20
2018-03-07T14:20:56.765Z,7.10
2018-03-07T14:23:25.161Z,7.10
2018-03-07T14:25:53.531Z,7.30
2018-03-07T14:28:21.884Z,7.50
2018-03-07T14:30:50.268Z,7.70
2018-03-07T14:33:18.668Z,8.10
2018-03-07T14:35:47.062Z,8.50
2018-03-07T14:38:16.341Z,8.40
2018-03-07T14:40:44.688Z,8.40
2018-03-07T14:43:13.803Z,8.20
2018-03-07T14:45:41.977Z,8.20
2018-03-07T14:48:10.312Z,8.00
2018-03-07T14:50:39.612Z,8.00
2018-03-07T14:53:08.179Z,7.90
2018-03-07T14:55:36.556Z,7.90
2018-03-07T14:58:04.575Z,8.00
2018-03-07T15:00:32.974Z,7.90
2018-03-07T15:03:02.271Z,7.60
2018-03-07T15:05:30.616Z,7.60
2018-03-07T15:07:59.736Z,7.40
2018-03-07T15:10:28.099Z,7.40
2018-03-07T15:12:57.228Z,7.60
2018-03-07T15:15:25.577Z,7.60
2018-03-07T15:17:53.924Z,7.60
2018-03-07T15:20:22.377Z,7.60
2018-03-07T15:22:50.714Z,7.60
2018-03-07T15:25:19.101Z,7.60
2018-03-07T15:27:47.450Z,7.60
2018-03-07T15:30:15.820Z,7.50
2018-03-07T15:32:44.174Z,7.30
2018-03-07T15:35:12.556Z,7.10
2018-03-07T15:37:40.931Z,7.00
2018-03-07T15:40:09.299Z,6.90
2018-03-07T15:42:38.486Z,6.70
2018-03-07T15:45:06.827Z,6.70
2018-03-07T15:47:36.156Z,6.60
2018-03-07T15:50:04.211Z,6.50
2018-03-07T15:52:32.669Z,6.50
2018-03-07T15:55:01.846Z,6.40
2018-03-07T15:57:30.194Z,6.40
2018-03-07T15:59:58.554Z,6.40
2018-03-07T16:02:26.892Z,6.30
2018-03-07T16:04:56.014Z,6.30
2018-03-07T16:07:24.358Z,6.30
2018-03-07T16:09:52.732Z,6.30
2018-03-07T16:12:21.066Z,6.20
2018-03-07T16:14:49.418Z,6.10
2018-03-07T16:17:18.558Z,5.90
2018-03-07T16:19:46.926Z,5.90
2018-03-07T16:22:15.275Z,5.80
2018-03-07T16:24:43.634Z,5.70
2018-03-07T16:27:12.767Z,5.60
2018-03-07T16:29:41.110Z,5.60
2018-03-07T16:32:10.482Z,5.40
2018-03-07T16:34:39.649Z,5.40
2018-03-07T16:37:08.246Z,5.40
2018-03-07T16:39:36.697Z,5.30
2018-03-07T16:42:05.057Z,5.30
2018-03-07T16:44:34.387Z,5.20
2018-03-07T16:47:02.757Z,5.20
2018-03-07T16:49:31.429Z,5.10
2018-03-07T16:51:59.789Z,5.20
2018-03-07T16:54:28.938Z,5.20
2018-03-07T16:56:56.974Z,5.10
2018-03-07T16:59:25.196Z,5.10
2018-03-07T17:01:53.611Z,5.10
2018-03-07T17:04:21.956Z,5.00
2018-03-07T17:06:50.330Z,4.90
2018-03-07T17:09:18.701Z,4.90
2018-03-07T17:11:46.735Z,4.80
2018-03-07T17:14:15.258Z,4.80
2018-03-07T17:16:43.641Z,4.70
2018-03-07T17:19:12.026Z,4.70
2018-03-07T17:21:40.381Z,4.70
2018-03-07T17:24:08.749Z,4.70
2018-03-07T17:26:37.110Z,4.60
2018-03-07T17:29:05.583Z,4.60
2018-03-07T17:31:33.961Z,4.60
2018-03-07T17:34:02.314Z,4.60
2018-03-07T17:36:30.890Z,4.60
2018-03-07T17:38:59.316Z,4.70
2018-03-07T17:41:27.735Z,4.70
2018-03-07T17:43:56.080Z,4.70
2018-03-07T17:46:24.427Z,4.70
2018-03-07T17:48:52.600Z,4.70
2018-03-07T17:51:20.927Z,4.70
2018-03-07T17:53:49.380Z,4.70
2018-03-07T17:56:17.808Z,4.70
2018-03-07T17:58:46.161Z,4.70
2018-03-07T18:01:14.520Z,4.70
2018-03-07T18:03:42.851Z,4.70
2018-03-07T18:06:12.079Z,4.80
2018-03-07T18:08:40.481Z,4.80
2018-03-07T18:11:09.156Z,4.80
2018-03-07T18:13:37.489Z,4.80
2018-03-07T18:16:06.621Z,4.90
2018-03-07T18:18:34.977Z,4.90
2018-03-07T18:21:04.078Z,4.90
2018-03-07T18:23:32.440Z,4.90
2018-03-07T18:26:01.544Z,4.90
2018-03-07T18:28:30.678Z,5.00
2018-03-07T18:30:59.092Z,4.90
2018-03-07T18:33:27.436Z,5.00
2018-03-07T18:35:55.795Z,5.00
2018-03-07T18:38:24.155Z,5.00
2018-03-07T18:40:52.707Z,5.00
2018-03-07T18:43:21.053Z,5.10
2018-03-07T18:45:49.412Z,5.10
2018-03-07T18:48:17.757Z,5.10
2018-03-07T18:50:46.862Z,5.00
2018-03-07T18:53:15.220Z,5.00
2018-03-07T18:55:44.352Z,4.90
2018-03-07T18:58:14.454Z,5.00
2018-03-07T19:00:42.793Z,4.90
2018-03-07T19:03:11.164Z,5.00
2018-03-07T19:05:41.078Z,5.00
2018-03-07T19:08:09.456Z,5.00
2018-03-07T19:10:37.836Z,5.00
2018-03-07T19:13:06.396Z,5.00
2018-03-07T19:15:34.759Z,5.00
2018-03-07T19:18:03.105Z,5.00
2018-03-07T19:20:32.338Z,4.90
2018-03-07T19:23:00.683Z,4.90
2018-03-07T19:25:29.864Z,4.90
2018-03-07T19:27:58.205Z,4.90
2018-03-07T19:30:26.564Z,4.80
2018-03-07T19:32:54.951Z,4.80
2018-03-07T19:35:23.308Z,4.80
2018-03-07T19:37:51.737Z,4.90
2018-03-07T19:40:20.090Z,4.80
2018-03-07T19:42:48.476Z,4.90
2018-03-07T19:45:16.891Z,4.80
2018-03-07T19:47:45.232Z,4.70
2018-03-07T19:50:13.603Z,4.50
2018-03-07T19:52:41.930Z,4.40
2018-03-07T19:55:11.063Z,4.40
2018-03-07T19:57:39.414Z,4.30
2018-03-07T20:00:09.466Z,4.30
2018-03-07T20:02:37.677Z,4.20
2018-03-07T20:05:05.383Z,4.20
2018-03-07T20:07:33.734Z,4.20
2018-03-07T20:10:02.873Z,4.10
2018-03-07T20:12:31.232Z,4.20
2018-03-07T20:14:59.561Z,4.10
2018-03-07T20:17:27.930Z,4.20
2018-03-07T20:22:31.418Z,4.10
2018-03-07T20:24:59.756Z,4.20
2018-03-07T20:27:28.900Z,4.20
2018-03-07T20:29:57.299Z,4.20
2018-03-07T20:32:25.632Z,4.10
2018-03-07T20:34:55.661Z,4.10
2018-03-07T20:37:24.614Z,4.10
2018-03-07T20:39:54.121Z,4.10
2018-03-07T20:42:23.254Z,4.10
2018-03-07T20:44:51.615Z,4.10
2018-03-07T20:47:19.965Z,4.00
2018-03-07T20:49:49.884Z,4.10
2018-03-07T20:52:19.396Z,4.20
2018-03-07T20:57:17.145Z,4.10
2018-03-07T21:02:14.896Z,4.10
2018-03-07T21:09:43.203Z,3.10
2018-03-07T21:14:42.222Z,4.20
2018-03-07T21:17:10.589Z,4.10
2018-03-07T21:19:38.973Z,4.20
2018-03-07T21:22:07.367Z,4.20
2018-03-07T21:24:35.708Z,4.30
2018-03-07T21:27:04.088Z,4.30
2018-03-07T21:29:32.428Z,4.30
2018-03-07T21:32:00.876Z,4.30
2018-03-07T21:34:29.228Z,4.40
2018-03-07T21:36:59.096Z,4.30
2018-03-07T21:39:28.577Z,4.50
2018-03-07T21:41:58.240Z,4.50
2018-03-07T21:44:28.111Z,4.60
2018-03-07T21:46:56.469Z,4.60
2018-03-07T21:49:24.840Z,4.60
2018-03-07T21:51:53.182Z,4.60
2018-03-07T21:54:21.579Z,4.70
2018-03-07T21:56:49.972Z,4.60
2018-03-07T21:59:19.828Z,4.60
2018-03-07T22:01:48.936Z,4.70
2018-03-07T22:04:18.925Z,4.70
2018-03-07T22:06:47.352Z,4.70
2018-03-07T22:09:15.832Z,4.70
2018-03-07T22:11:44.191Z,4.70
2018-03-07T22:14:13.295Z,4.80
2018-03-07T22:16:41.652Z,4.70
2018-03-07T22:19:10.757Z,4.70
2018-03-07T22:21:39.881Z,4.60
2018-03-07T22:24:08.215Z,4.60
2018-03-07T22:26:37.706Z,4.70
2018-03-07T22:29:06.065Z,4.70
2018-03-07T22:31:34.415Z,4.80
2018-03-07T22:34:02.835Z,4.80
2018-03-07T22:36:31.175Z,4.70
2018-03-07T22:38:59.544Z,4.70
2018-03-07T22:41:27.887Z,4.70
2018-03-07T22:43:56.996Z,4.60
2018-03-07T22:46:26.122Z,4.60
2018-03-07T22:48:54.460Z,4.60
2018-03-07T22:51:23.591Z,4.50
2018-03-07T22:53:51.928Z,4.50
2018-03-07T22:56:21.059Z,4.60
2018-03-07T22:58:49.400Z,4.60
2018-03-07T23:01:18.593Z,4.40
2018-03-07T23:03:46.962Z,4.40
2018-03-07T23:06:15.310Z,4.50
2018-03-07T23:08:43.653Z,4.40
2018-03-07T23:11:11.985Z,4.40
2018-03-07T23:13:40.336Z,4.40
2018-03-07T23:16:08.679Z,4.40
2018-03-07T23:18:37.032Z,4.40
2018-03-07T23:21:06.135Z,4.30
2018-03-07T23:23:35.280Z,4.20
2018-03-07T23:26:03.620Z,4.10
2018-03-07T23:28:32.731Z,4.00
2018-03-07T23:31:01.089Z,4.00
2018-03-07T23:33:30.188Z,3.90
2018-03-07T23:35:59.310Z,3.90
2018-03-07T23:38:27.671Z,3.80
2018-03-07T23:40:59.988Z,3.70
2018-03-07T23:43:28.439Z,3.70
2018-03-07T23:45:56.788Z,3.80
2018-03-07T23:48:25.891Z,3.70
2018-03-07T23:50:54.221Z,3.70
2018-03-07T23:53:22.584Z,3.70
2018-03-07T23:55:50.946Z,3.60
2018-03-07T23:58:19.294Z,3.70
